Time;durP1;ratioP1;P1;durP2;ratioP2;P2;SDS_P1;SDS_P2;PMS_P1;PMS_P2;Temp;Humidity;BMP_temperature;BMP_pressure;BME280_temperature;BME280_humidity;BME280_pressure;Samples;Min_cycle;Max_cycle;Signal;HPM_P1;HPM_P2
2022/04/09 00:00:35;;;;;;;77.32;4.75;;;;;;;4.52;100.00;95952.69;5004885;28;20115;-54
2022/04/09 00:03:01;;;;;;;76.90;4.57;;;;;;;4.44;100.00;95957.38;5004130;28;20022;-57
2022/04/09 00:05:26;;;;;;;66.97;4.03;;;;;;;4.06;100.00;95962.63;5005597;28;20033;-54
2022/04/09 00:07:52;;;;;;;63.75;4.22;;;;;;;4.95;100.00;95983.25;5003756;28;20024;-57
2022/04/09 00:10:17;;;;;;;76.30;4.53;;;;;;;4.70;100.00;95984.47;5005195;28;20042;-55
2022/04/09 00:12:47;;;;;;;60.00;3.95;;;;;;;4.94;100.00;95976.41;5011652;28;20028;-55
2022/04/09 00:15:13;;;;;;;89.38;5.07;;;;;;;3.91;100.00;95984.00;5006715;28;20021;-54
2022/04/09 00:17:41;;;;;;;66.13;3.90;;;;;;;4.29;100.00;95999.44;5006376;28;20048;-55
2022/04/09 00:20:07;;;;;;;71.82;4.32;;;;;;;4.76;100.00;96012.59;5007821;28;20818;-55
2022/04/09 00:22:33;;;;;;;62.28;4.35;;;;;;;4.77;100.00;96014.25;5008431;28;20120;-56
2022/04/09 00:24:59;;;;;;;66.03;4.35;;;;;;;4.53;100.00;96026.63;5006603;28;20079;-56
2022/04/09 00:27:24;;;;;;;72.35;4.72;;;;;;;4.61;100.00;96021.06;5006434;28;20403;-54
2022/04/09 00:29:49;;;;;;;63.10;4.35;;;;;;;4.43;100.00;96036.56;5007321;28;20036;-54
2022/04/09 00:32:15;;;;;;;62.15;4.15;;;;;;;4.26;100.00;96046.84;5006748;28;20045;-56
2022/04/09 00:34:40;;;;;;;71.05;4.68;;;;;;;4.71;100.00;96050.72;5005730;28;20783;-55
2022/04/09 00:37:06;;;;;;;62.42;3.92;;;;;;;3.85;100.00;96060.75;5006524;28;20046;-55
2022/04/09 00:39:31;;;;;;;59.30;4.35;;;;;;;4.12;100.00;96069.84;5004056;28;20134;-55
2022/04/09 00:41:56;;;;;;;60.65;4.03;;;;;;;4.38;100.00;96074.66;5007338;28;20046;-54
2022/04/09 00:44:22;;;;;;;69.88;4.60;;;;;;;4.58;100.00;96078.88;5005803;28;20033;-56
2022/04/09 00:46:48;;;;;;;72.72;4.60;;;;;;;4.22;100.00;96086.59;5007237;28;20069;-54
2022/04/09 00:49:15;;;;;;;60.33;4.38;;;;;;;4.02;100.00;96090.09;5006316;28;20117;-56
2022/04/09 00:51:43;;;;;;;67.90;4.65;;;;;;;3.85;100.00;96093.44;5005835;28;20030;-53
2022/04/09 00:54:11;;;;;;;46.05;3.63;;;;;;;3.39;100.00;96106.59;5006243;28;20018;-56
2022/04/09 00:56:38;;;;;;;64.30;4.57;;;;;;;4.30;100.00;96135.28;5003423;28;20038;-54
2022/04/09 00:59:06;;;;;;;62.65;4.63;;;;;;;4.10;100.00;96143.91;5006318;28;20025;-57
2022/04/09 01:01:36;;;;;;;61.97;4.32;;;;;;;3.74;100.00;96163.53;5005684;28;20156;-55
2022/04/09 01:04:08;;;;;;;53.55;4.20;;;;;;;4.62;100.00;96178.50;5007915;28;20483;-55
2022/04/09 01:06:34;;;;;;;;;;;;;;;3.91;100.00;96201.47;5003550;28;20499;-55
2022/04/09 01:09:00;;;;;;;45.00;3.58;;;;;;;4.30;100.00;96203.22;5006576;28;20055;-55
2022/04/09 01:11:26;;;;;;;47.58;3.90;;;;;;;4.25;100.00;96211.16;5009244;28;20119;-55
2022/04/09 01:13:52;;;;;;;69.18;4.60;;;;;;;3.98;100.00;96208.03;5008065;28;20188;-57
2022/04/09 01:16:17;;;;;;;42.00;3.30;;;;;;;3.92;100.00;96223.81;5005532;28;20052;-55
2022/04/09 01:18:43;;;;;;;60.25;4.25;;;;;;;4.67;100.00;96227.38;5005963;28;20026;-56
2022/04/09 01:21:09;;;;;;;58.22;3.83;;;;;;;4.14;100.00;96222.88;5010224;28;20054;-55
2022/04/09 01:23:34;;;;;;;49.25;3.83;;;;;;;4.18;100.00;96227.00;5013748;28;20053;-55
2022/04/09 01:26:01;;;;;;;59.97;4.55;;;;;;;5.46;100.00;96236.56;5007960;28;20034;-56
2022/04/09 01:28:27;;;;;;;57.40;4.30;;;;;;;5.80;100.00;96251.28;5011300;28;20060;-55
2022/04/09 01:30:53;;;;;;;60.22;4.47;;;;;;;4.99;100.00;96256.03;5007882;28;20034;-55
2022/04/09 01:33:20;;;;;;;53.78;4.25;;;;;;;6.80;100.00;96263.44;5015206;28;20026;-54
2022/04/09 01:35:47;;;;;;;50.40;3.88;;;;;;;4.71;100.00;96256.50;5010856;28;20377;-54
2022/04/09 01:38:13;;;;;;;54.35;3.90;;;;;;;4.73;100.00;96278.75;5007371;28;20044;-55
2022/04/09 01:40:38;;;;;;;42.88;3.47;;;;;;;5.27;100.00;96296.94;5008069;28;20139;-56
2022/04/09 01:43:04;;;;;;;65.18;4.53;;;;;;;5.19;100.00;96317.97;5009218;28;20464;-55
2022/04/09 01:45:30;;;;;;;59.60;4.30;;;;;;;6.12;100.00;96321.31;5010733;28;20097;-54
2022/04/09 01:47:55;;;;;;;59.20;4.38;;;;;;;5.59;100.00;96321.25;5009942;28;20032;-55
2022/04/09 01:50:26;;;;;;;64.35;4.70;;;;;;;4.81;100.00;96325.72;5009295;28;20409;-55
2022/04/09 01:52:54;;;;;;;52.72;4.20;;;;;;;5.27;100.00;96334.88;5005573;28;21029;-55
2022/04/09 01:55:20;;;;;;;68.20;4.72;;;;;;;4.42;100.00;96336.06;5006663;28;20032;-54
2022/04/09 01:57:46;;;;;;;60.85;4.60;;;;;;;5.01;100.00;96347.25;5009285;28;20037;-54
2022/04/09 02:00:14;;;;;;;66.65;4.85;;;;;;;5.92;100.00;96354.19;5006842;28;20521;-55
2022/04/09 02:02:40;;;;;;;57.33;4.53;;;;;;;5.11;100.00;96364.00;5003457;28;20109;-53
2022/04/09 02:05:06;;;;;;;93.95;6.30;;;;;;;5.59;100.00;96362.66;5003771;28;20077;-55
2022/04/09 02:07:31;;;;;;;58.53;4.50;;;;;;;5.19;100.00;96385.16;5009050;28;20020;-56
2022/04/09 02:09:57;;;;;;;64.30;4.80;;;;;;;4.62;100.00;96405.75;5009951;28;20033;-57
2022/04/09 02:12:22;;;;;;;61.80;4.90;;;;;;;5.51;100.00;96420.81;5008965;28;20066;-56
2022/04/09 02:14:48;;;;;;;86.20;5.93;;;;;;;5.52;100.00;96433.66;5008343;28;20121;-55
2022/04/09 02:17:13;;;;;;;56.67;4.80;;;;;;;5.90;100.00;96446.56;5003581;28;20076;-56
2022/04/09 02:19:39;;;;;;;54.78;4.70;;;;;;;5.71;100.00;96464.69;5012863;28;20122;-56
2022/04/09 02:22:05;;;;;;;62.72;4.82;;;;;;;5.85;100.00;96463.22;5006890;28;20456;-56
2022/04/09 02:24:31;;;;;;;76.18;5.65;;;;;;;5.03;100.00;96466.88;4995445;28;20025;-56
2022/04/09 02:26:56;;;;;;;55.67;4.78;;;;;;;5.17;100.00;96480.03;5007813;28;20192;-54
2022/04/09 02:29:22;;;;;;;58.42;4.72;;;;;;;4.66;100.00;96473.59;5007760;28;20026;-55
2022/04/09 02:31:47;;;;;;;46.97;4.38;;;;;;;5.15;100.00;96492.19;5005166;28;20045;-57
2022/04/09 02:34:12;;;;;;;49.60;4.28;;;;;;;4.92;100.00;96500.09;5004780;28;20092;-55
2022/04/09 02:36:38;;;;;;;76.60;5.57;;;;;;;4.66;100.00;96509.75;5004698;28;20511;-55
2022/04/09 02:39:04;;;;;;;64.28;5.22;;;;;;;6.60;100.00;96534.75;5008336;28;20044;-56
2022/04/09 02:41:29;;;;;;;61.72;5.30;;;;;;;4.67;100.00;96532.13;5006047;28;20507;-56
2022/04/09 02:43:55;;;;;;;62.58;5.25;;;;;;;4.97;100.00;96555.00;5007970;28;20036;-56
2022/04/09 02:46:21;;;;;;;57.00;4.82;;;;;;;4.54;100.00;96539.50;5007069;28;20042;-55
2022/04/09 02:48:47;;;;;;;67.10;5.35;;;;;;;5.58;100.00;96567.84;5011165;28;20044;-55
2022/04/09 02:51:13;;;;;;;60.03;5.57;;;;;;;4.75;100.00;96565.38;5009721;28;20400;-55
2022/04/09 02:53:39;;;;;;;66.93;6.00;;;;;;;4.61;100.00;96568.50;5008533;28;20029;-54
2022/04/09 02:56:04;;;;;;;46.90;4.57;;;;;;;5.08;100.00;96598.47;5012406;28;20037;-56
2022/04/09 02:58:30;;;;;;;55.65;4.90;;;;;;;4.87;100.00;96603.63;5007206;28;20045;-57
2022/04/09 03:00:55;;;;;;;78.70;5.95;;;;;;;4.96;100.00;96604.97;5008030;28;20041;-56
2022/04/09 03:03:21;;;;;;;51.40;4.97;;;;;;;5.08;100.00;96609.66;5004214;28;20645;-54
2022/04/09 03:05:47;;;;;;;66.30;5.13;;;;;;;5.34;100.00;96623.22;5004284;28;20405;-56
2022/04/09 03:08:12;;;;;;;59.28;5.50;;;;;;;4.57;100.00;96627.16;5009065;28;20021;-57
2022/04/09 03:10:37;;;;;;;56.40;4.47;;;;;;;5.69;100.00;96651.94;5010521;28;20042;-56
2022/04/09 03:13:05;;;;;;;65.18;5.70;;;;;;;5.57;100.00;96658.47;5006035;28;20053;-57
2022/04/09 03:15:31;;;;;;;70.13;5.82;;;;;;;5.11;100.00;96662.94;5007672;28;20029;-58
2022/04/09 03:17:57;;;;;;;61.15;5.07;;;;;;;5.32;100.00;96663.81;5007801;28;20047;-58
2022/04/09 03:20:22;;;;;;;65.88;4.82;;;;;;;7.07;100.00;96675.91;5005539;28;20033;-56
2022/04/09 03:22:48;;;;;;;69.78;6.03;;;;;;;5.32;100.00;96663.81;5005601;28;20018;-56
2022/04/09 03:25:14;;;;;;;74.32;6.20;;;;;;;5.36;100.00;96680.88;5007943;28;20033;-57
2022/04/09 03:27:40;;;;;;;65.45;5.63;;;;;;;5.50;100.00;96698.44;5003091;28;20748;-55
2022/04/09 03:30:08;;;;;;;62.92;5.82;;;;;;;5.33;100.00;96701.69;5008918;28;20025;-56
2022/04/09 03:32:36;;;;;;;75.05;6.57;;;;;;;4.92;100.00;96707.59;5008399;28;20073;-55
2022/04/09 03:35:02;;;;;;;58.63;5.45;;;;;;;5.22;100.00;96710.72;5007550;28;20025;-56
2022/04/09 03:37:27;;;;;;;78.78;6.18;;;;;;;6.81;100.00;96741.94;5000990;28;20464;-56
2022/04/09 03:39:52;;;;;;;58.38;5.55;;;;;;;6.28;100.00;96733.91;5006040;28;20091;-55
2022/04/09 03:42:18;;;;;;;71.80;7.47;;;;;;;5.21;100.00;96740.06;5005279;28;20085;-58
2022/04/09 03:44:43;;;;;;;77.18;7.38;;;;;;;5.06;100.00;96751.00;5001975;28;20064;-55
2022/04/09 03:47:09;;;;;;;54.40;4.10;;;;;;;6.46;100.00;96765.94;5008902;28;20108;-57
2022/04/09 03:49:34;;;;;;;75.30;7.60;;;;;;;5.12;100.00;96750.75;5006839;28;20241;-58
2022/04/09 03:51:59;;;;;;;58.47;6.95;;;;;;;5.78;100.00;96761.03;5005198;28;20164;-57
2022/04/09 03:54:30;;;;;;;66.95;6.15;;;;;;;6.67;100.00;96779.69;5007809;28;20033;-56
2022/04/09 03:56:56;;;;;;;57.78;6.25;;;;;;;6.69;100.00;96783.06;5008322;28;20070;-57
2022/04/09 03:59:21;;;;;;;55.75;6.32;;;;;;;5.22;100.00;96780.53;5010644;28;20136;-56
2022/04/09 04:01:47;;;;;;;62.67;7.72;;;;;;;5.88;100.00;96792.56;5008853;28;20041;-55
2022/04/09 04:04:13;;;;;;;60.65;4.93;;;;;;;7.53;100.00;96806.84;5003976;28;20038;-57
2022/04/09 04:06:40;;;;;;;72.38;8.20;;;;;;;6.43;100.00;96801.50;5006010;28;20041;-57
2022/04/09 04:09:06;;;;;;;57.38;6.80;;;;;;;6.03;100.00;96798.88;5004121;28;20415;-56
2022/04/09 04:11:32;;;;;;;69.97;8.77;;;;;;;5.17;100.00;96810.88;5003421;28;20037;-57
2022/04/09 04:13:57;;;;;;;60.35;5.47;;;;;;;7.45;100.00;96826.25;5009709;28;20133;-57
2022/04/09 04:16:23;;;;;;;64.80;8.82;;;;;;;6.29;100.00;96818.47;5008711;28;20042;-57
2022/04/09 04:18:48;;;;;;;70.80;9.50;;;;;;;4.97;100.00;96831.47;5006121;28;20591;-56
2022/04/09 04:21:14;;;;;;;60.05;7.97;;;;;;;5.47;100.00;96839.03;5003851;28;20515;-56
2022/04/09 04:23:39;;;;;;;54.70;9.00;;;;;;;5.01;100.00;96851.13;5006869;28;20029;-56
2022/04/09 04:26:05;;;;;;;60.63;8.50;;;;;;;4.98;100.00;96866.72;5005135;28;20132;-57
2022/04/09 04:28:30;;;;;;;54.10;6.35;;;;;;;6.72;100.00;96883.97;5007962;28;20037;-56
2022/04/09 04:30:55;;;;;;;71.60;9.48;;;;;;;5.43;100.00;96889.19;5001587;28;20041;-56
2022/04/09 04:33:21;;;;;;;58.20;7.85;;;;;;;5.75;100.00;96894.84;5007987;28;20029;-57
2022/04/09 04:35:46;;;;;;;66.63;4.65;;;;;;;7.97;100.00;96926.75;5010000;28;20060;-55
2022/04/09 04:38:12;;;;;;;61.15;8.63;;;;;;;5.72;100.00;96915.69;5007049;28;20035;-56
2022/04/09 04:40:37;;;;;;;63.28;9.10;;;;;;;5.48;100.00;96912.31;5002356;28;20037;-57
2022/04/09 04:43:03;;;;;;;57.10;5.00;;;;;;;6.45;100.00;96932.63;5007506;28;20551;-56
2022/04/09 04:45:29;;;;;;;69.75;8.80;;;;;;;6.33;100.00;96928.78;5006086;28;20088;-56
2022/04/09 04:47:55;;;;;;;64.60;8.30;;;;;;;5.92;100.00;96941.63;5006639;28;20018;-56
2022/04/09 04:50:21;;;;;;;74.28;9.48;;;;;;;5.77;100.00;96939.63;5004856;28;20053;-56
2022/04/09 04:52:47;;;;;;;63.42;7.50;;;;;;;5.38;100.00;96937.66;5005058;28;20385;-56
2022/04/09 04:55:14;;;;;;;98.93;8.70;;;;;;;6.65;100.00;96947.31;5003088;28;20029;-55
2022/04/09 04:57:44;;;;;;;64.18;9.38;;;;;;;6.16;100.00;96947.59;5001473;28;20030;-56
2022/04/09 05:00:10;;;;;;;72.82;9.13;;;;;;;6.21;100.00;96964.69;4998776;28;20034;-54
2022/04/09 05:02:35;;;;;;;70.47;10.13;;;;;;;5.47;100.00;96968.34;5004539;28;20069;-56
2022/04/09 05:05:01;;;;;;;75.43;8.70;;;;;;;7.00;100.00;96976.06;5006013;28;20030;-55
2022/04/09 05:07:37;;;;;;;59.88;7.38;;;;;;;5.85;100.00;96978.16;5005666;28;20974;-56
2022/04/09 05:10:05;;;;;;;61.50;7.88;;;;;;;6.29;100.00;96976.44;5005316;28;20030;-56
2022/04/09 05:12:32;;;;;;;64.47;9.00;;;;;;;6.21;100.00;96981.06;5007286;28;20065;-57
2022/04/09 05:14:58;;;;;;;73.75;8.57;;;;;;;6.42;100.00;96992.31;5005482;28;20285;-56
2022/04/09 05:17:23;;;;;;;68.07;9.32;;;;;;;4.90;100.00;96987.63;5004824;28;20041;-56
2022/04/09 05:19:48;;;;;;;60.53;8.70;;;;;;;5.55;100.00;96992.19;5004847;28;20061;-55
2022/04/09 05:22:13;;;;;;;70.97;9.60;;;;;;;5.57;100.00;96994.72;5004624;28;20125;-56
2022/04/09 05:24:39;;;;;;;64.40;8.63;;;;;;;5.49;100.00;96997.56;5006413;28;20034;-56
2022/04/09 05:27:04;;;;;;;58.40;4.97;;;;;;;8.62;100.00;97013.72;5004919;28;20061;-56
2022/04/09 05:29:29;;;;;;;69.30;9.75;;;;;;;5.83;100.00;97009.28;5006991;28;20264;-56
2022/04/09 05:31:55;;;;;;;54.33;6.63;;;;;;;7.22;100.00;97021.84;5006938;28;20103;-55
2022/04/09 05:34:20;;;;;;;63.80;7.93;;;;;;;7.04;100.00;97024.31;5006615;28;20198;-55
2022/04/09 05:36:45;;;;;;;48.90;7.90;;;;;;;5.48;100.00;97032.09;5005264;28;20038;-55
2022/04/09 05:39:11;;;;;;;60.60;9.35;;;;;;;5.11;100.00;97038.59;5007008;28;20022;-55
2022/04/09 05:41:36;;;;;;;57.28;5.22;;;;;;;7.22;100.00;97053.78;5005206;28;20029;-56
2022/04/09 05:44:01;;;;;;;52.22;8.70;;;;;;;6.27;100.00;97047.34;5007600;28;20030;-54
2022/04/09 05:46:27;;;;;;;71.20;10.07;;;;;;;5.90;100.00;97054.72;5002868;28;20444;-56
2022/04/09 05:48:52;;;;;;;63.55;8.60;;;;;;;6.82;100.00;97059.81;4999708;28;20121;-54
2022/04/09 05:51:18;;;;;;;53.53;6.78;;;;;;;6.85;100.00;97065.72;5004885;28;20073;-56
2022/04/09 05:53:43;;;;;;;64.75;9.60;;;;;;;6.33;100.00;97058.28;5006127;28;20022;-54
2022/04/09 05:56:09;;;;;;;58.85;4.75;;;;;;;8.92;100.00;97093.72;5006238;28;20038;-57
2022/04/09 05:58:36;;;;;;;60.58;7.70;;;;;;;6.93;100.00;97078.38;5008184;28;20028;-56
2022/04/09 06:01:02;;;;;;;74.50;9.00;;;;;;;7.31;100.00;97079.34;5012858;28;20033;-54
2022/04/09 06:03:27;;;;;;;74.15;9.85;;;;;;;6.63;100.00;97090.81;5007549;28;20071;-56
2022/04/09 06:05:52;;;;;;;65.45;8.68;;;;;;;6.39;100.00;97106.41;5007916;28;20037;-56
2022/04/09 06:08:18;;;;;;;60.03;7.10;;;;;;;6.04;100.00;97102.56;5012640;28;20018;-54
2022/04/09 06:10:43;;;;;;;55.45;6.40;;;;;;;7.51;100.00;97120.00;5007434;28;20061;-54
2022/04/09 06:13:10;;;;;;;56.80;7.47;;;;;;;6.50;100.00;97117.19;5006495;28;20030;-55
2022/04/09 06:15:35;;;;;;;57.60;8.32;;;;;;;6.13;100.00;97117.75;5007977;28;20145;-56
2022/04/09 06:18:06;;;;;;;66.50;10.00;;;;;;;6.71;100.00;97131.06;5010369;28;20084;-55
2022/04/09 06:20:31;;;;;;;63.88;8.70;;;;;;;6.72;100.00;97130.16;5009654;28;20672;-56
2022/04/09 06:22:56;;;;;;;54.55;6.97;;;;;;;6.95;100.00;97142.19;5012298;28;20029;-55
2022/04/09 06:25:22;;;;;;;66.88;10.15;;;;;;;5.85;100.00;97149.78;5010680;28;20045;-54
2022/04/09 06:27:47;;;;;;;54.58;9.55;;;;;;;5.85;100.00;97143.78;5006897;28;20028;-54
2022/04/09 06:30:13;;;;;;;68.82;10.23;;;;;;;5.60;100.00;97149.81;5010521;28;20280;-56
2022/04/09 06:32:39;;;;;;;87.25;10.82;;;;;;;5.82;100.00;97149.06;5003260;28;20109;-56
2022/04/09 06:35:05;;;;;;;92.03;10.02;;;;;;;6.35;100.00;97157.47;5004491;28;20109;-59
2022/04/09 06:37:31;;;;;;;57.78;8.15;;;;;;;6.43;100.00;97156.34;5006768;28;20080;-56
2022/04/09 06:39:56;;;;;;;72.63;10.00;;;;;;;6.28;100.00;97171.56;5009762;28;20029;-54
2022/04/09 06:42:21;;;;;;;64.03;9.07;;;;;;;6.30;100.00;97169.75;5006840;28;20042;-56
2022/04/09 06:44:47;;;;;;;69.93;8.07;;;;;;;7.49;100.00;97183.25;5004989;28;20471;-57
2022/04/09 06:47:12;;;;;;;66.32;8.95;;;;;;;7.69;100.00;97182.41;5006005;28;20026;-54
2022/04/09 06:49:38;;;;;;;61.13;9.30;;;;;;;6.72;100.00;97178.56;5007368;28;20148;-55
2022/04/09 06:52:05;;;;;;;51.50;6.93;;;;;;;7.85;100.00;97196.44;5006122;28;20083;-57
2022/04/09 06:54:30;;;;;;;74.13;9.68;;;;;;;7.13;100.00;97195.09;5005256;28;20200;-55
2022/04/09 06:56:56;;;;;;;63.97;9.00;;;;;;;6.66;100.00;97195.19;5005809;28;20495;-55
2022/04/09 06:59:21;;;;;;;64.55;10.77;;;;;;;6.48;100.00;97201.06;5006136;28;20104;-55
2022/04/09 07:01:46;;;;;;;85.82;8.38;;;;;;;7.37;100.00;97209.69;5004628;28;20072;-55
2022/04/09 07:04:12;;;;;;;93.68;11.38;;;;;;;5.95;100.00;97210.69;5001867;28;20155;-56
2022/04/09 07:06:37;;;;;;;90.68;11.65;;;;;;;7.35;100.00;97214.94;5002376;28;20033;-55
2022/04/09 07:09:02;;;;;;;65.20;8.95;;;;;;;6.69;100.00;97210.63;5003633;28;20025;-57
2022/04/09 07:11:28;;;;;;;65.70;7.97;;;;;;;9.19;100.00;97213.81;5005213;28;20042;-54
2022/04/09 07:13:53;;;;;;;69.45;9.93;;;;;;;7.84;100.00;97212.06;5005152;28;20037;-55
2022/04/09 07:16:18;;;;;;;65.85;8.32;;;;;;;8.86;100.00;97229.25;5007688;28;20037;-54
2022/04/09 07:18:44;;;;;;;80.05;9.45;;;;;;;8.33;100.00;97217.75;5012394;28;20021;-56
2022/04/09 07:21:09;;;;;;;54.90;8.43;;;;;;;7.88;100.00;97224.88;5005566;28;20676;-57
2022/04/09 07:23:34;;;;;;;62.83;10.35;;;;;;;8.44;100.00;97225.94;5005124;28;20030;-56
2022/04/09 07:26:00;;;;;;;82.93;9.23;;;;;;;9.41;100.00;97226.63;5002760;28;20065;-55
2022/04/09 07:28:25;;;;;;;63.72;9.15;;;;;;;8.20;100.00;97220.03;5003799;28;20030;-55
2022/04/09 07:30:50;;;;;;;75.65;9.32;;;;;;;8.53;100.00;97216.88;5002979;28;20125;-57
2022/04/09 07:33:16;;;;;;;61.00;8.90;;;;;;;8.75;100.00;97226.28;5003816;28;20032;-55
2022/04/09 07:35:41;;;;;;;61.15;6.40;;;;;;;9.53;100.00;97242.56;5005947;28;20834;-58
2022/04/09 07:38:07;;;;;;;55.33;5.82;;;;;;;10.97;100.00;97237.75;5008595;28;20034;-57
2022/04/09 07:40:33;;;;;;;60.13;6.25;;;;;;;11.51;100.00;97228.66;5006569;28;20563;-56
2022/04/09 07:42:59;;;;;;;88.22;6.75;;;;;;;11.82;100.00;97235.59;5003013;28;20125;-55
2022/04/09 07:45:26;;;;;;;78.97;10.30;;;;;;;8.58;100.00;97230.50;5002205;28;20639;-56
2022/04/09 07:47:57;;;;;;;79.03;10.13;;;;;;;8.57;100.00;97238.38;5006330;28;20053;-55
2022/04/09 07:50:25;;;;;;;64.00;9.15;;;;;;;8.08;100.00;97251.72;5003137;28;20021;-56
2022/04/09 07:52:51;;;;;;;71.60;9.98;;;;;;;7.64;100.00;97246.66;5003857;28;20113;-57
2022/04/09 07:55:16;;;;;;;58.67;9.45;;;;;;;7.62;100.00;97246.72;5004161;28;20116;-57
2022/04/09 07:57:52;;;;;;;60.50;8.20;;;;;;;7.67;100.00;97262.09;5003205;28;20091;-54
2022/04/09 08:00:18;;;;;;;82.10;9.20;;;;;;;8.85;100.00;97262.19;5001458;28;20034;-57
2022/04/09 08:02:44;;;;;;;66.80;7.78;;;;;;;8.82;100.00;97274.50;5004823;28;20408;-56
2022/04/09 08:05:10;;;;;;;92.85;9.70;;;;;;;8.75;100.00;97278.28;5005628;28;20025;-57
2022/04/09 08:07:36;;;;;;;63.42;7.95;;;;;;;8.81;100.00;97284.06;5004787;28;20030;-55
2022/04/09 08:10:02;;;;;;;50.85;7.38;;;;;;;8.82;100.00;97275.34;5006170;28;20076;-54
2022/04/09 08:12:28;;;;;;;66.47;7.82;;;;;;;9.86;100.00;97288.69;5003940;28;20033;-56
2022/04/09 08:14:53;;;;;;;82.07;7.78;;;;;;;10.32;100.00;97283.78;5006045;28;20231;-55
2022/04/09 08:17:20;;;;;;;74.20;7.82;;;;;;;10.34;100.00;97280.19;5008197;28;20610;-55
2022/04/09 08:19:47;;;;;;;53.28;5.47;;;;;;;12.29;100.00;97275.56;5005239;28;20279;-55
2022/04/09 08:22:12;;;;;;;79.85;6.50;;;;;;;12.44;100.00;97285.13;5003931;28;20355;-58
2022/04/09 08:24:40;;;;;;;61.83;5.80;;;;;;;12.42;100.00;97273.06;5005672;28;20115;-55
2022/04/09 08:27:06;;;;;;;54.95;6.03;;;;;;;13.60;100.00;97273.59;5002954;28;20103;-55
2022/04/09 08:29:32;;;;;;;62.20;6.97;;;;;;;11.45;100.00;97274.25;5007815;28;20029;-55
2022/04/09 08:31:58;;;;;;;62.13;7.43;;;;;;;10.65;100.00;97283.81;5004740;28;20033;-55
2022/04/09 08:34:24;;;;;;;61.33;7.38;;;;;;;10.25;100.00;97277.19;5004948;28;20107;-55
2022/04/09 08:36:50;;;;;;;78.00;7.95;;;;;;;11.11;100.00;97285.72;5002561;28;20041;-56
2022/04/09 08:39:15;;;;;;;76.97;8.07;;;;;;;9.46;100.00;97286.25;5001333;28;20030;-54
2022/04/09 08:41:44;;;;;;;74.70;6.15;;;;;;;15.23;100.00;97286.13;5000951;28;20116;-57
2022/04/09 08:44:10;;;;;;;89.88;7.50;;;;;;;15.61;92.94;97273.84;5001177;28;20505;-55
2022/04/09 08:46:38;;;;;;;64.90;6.72;;;;;;;16.87;100.00;97279.31;5006218;28;20038;-61
2022/04/09 08:49:05;;;;;;;43.00;5.00;;;;;;;17.22;84.96;97275.72;5004667;28;20030;-55
2022/04/09 08:51:34;;;;;;;52.05;5.13;;;;;;;18.98;60.07;97280.56;5001218;28;20086;-55
2022/04/09 08:54:00;;;;;;;44.20;5.03;;;;;;;18.09;66.94;97291.56;5003333;28;20097;-55
2022/04/09 08:56:26;;;;;;;49.47;5.32;;;;;;;18.52;63.87;97297.66;5006716;28;20042;-54
2022/04/09 08:58:52;;;;;;;60.60;5.97;;;;;;;18.67;71.14;97299.84;5003430;28;20036;-57
2022/04/09 09:01:20;;;;;;;55.42;5.70;;;;;;;15.35;71.49;97313.34;5003644;28;20422;-56
2022/04/09 09:03:46;;;;;;;50.80;5.45;;;;;;;18.41;69.15;97304.69;5002778;28;20044;-56
2022/04/09 09:06:27;;;;;;;47.13;5.32;;;;;;;17.49;61.31;97307.78;5004333;28;20262;-53
2022/04/09 09:08:55;;;;;;;69.32;6.10;;;;;;;15.89;70.87;97320.00;5006379;28;20022;-54
2022/04/09 09:11:21;;;;;;;88.05;7.63;;;;;;;14.00;65.00;97326.00;4997702;28;20476;-55
2022/04/09 09:13:49;;;;;;;79.38;7.05;;;;;;;16.94;63.39;97322.66;4999496;28;20018;-55
2022/04/09 09:16:25;;;;;;;53.83;5.30;;;;;;;17.55;66.42;97316.97;5002445;28;20041;-58
2022/04/09 09:18:52;;;;;;;61.00;5.70;;;;;;;16.62;62.52;97323.34;5003959;28;20032;-56
2022/04/09 09:21:22;;;;;;;66.72;6.28;;;;;;;15.77;61.26;97331.44;5003475;28;20623;-55
2022/04/09 09:23:48;;;;;;;77.55;7.25;;;;;;;15.43;62.63;97331.19;5005969;28;20407;-55
2022/04/09 09:26:21;;;;;;;89.22;7.47;;;;;;;14.60;65.24;97336.97;4999853;28;20570;-58
2022/04/09 09:28:55;;;;;;;66.82;6.20;;;;;;;16.52;59.52;97335.50;5001271;28;20033;-56
2022/04/09 09:31:38;;;;;;;52.70;5.32;;;;;;;15.52;59.37;97333.16;5005761;28;20126;-57
2022/04/09 09:34:10;;;;;;;73.90;6.65;;;;;;;15.55;61.89;97340.81;5007013;28;20083;-57
2022/04/09 09:36:36;;;;;;;74.88;6.85;;;;;;;15.96;60.00;97347.53;5006883;28;20045;-56
2022/04/09 09:39:05;;;;;;;87.35;7.10;;;;;;;15.09;65.87;97356.34;5006186;28;20625;-56
2022/04/09 09:41:31;;;;;;;61.72;5.93;;;;;;;14.36;58.84;97358.63;5001990;28;20454;-57
2022/04/09 09:44:05;;;;;;;58.17;6.18;;;;;;;13.13;65.23;97355.97;5006931;28;20518;-59
2022/04/09 09:46:30;;;;;;;65.22;6.18;;;;;;;13.34;69.87;97363.44;5004473;28;20042;-57
2022/04/09 09:48:56;;;;;;;56.45;5.60;;;;;;;12.98;70.79;97357.75;5006504;28;20022;-57
2022/04/09 09:51:23;;;;;;;56.78;5.60;;;;;;;15.58;61.08;97348.47;5007675;28;20091;-57
2022/04/09 09:53:48;;;;;;;60.97;5.72;;;;;;;14.79;65.37;97357.53;5004393;28;20025;-57
2022/04/09 09:56:31;;;;;;;58.58;5.25;;;;;;;14.38;61.45;97340.97;5001590;28;20089;-56
2022/04/09 09:58:57;;;;;;;60.80;5.82;;;;;;;13.83;67.59;97348.06;5003426;28;20029;-58
2022/04/09 10:01:23;;;;;;;62.22;5.47;;;;;;;13.71;65.26;97345.41;5006633;28;20037;-57
2022/04/09 10:03:49;;;;;;;63.03;5.75;;;;;;;13.30;66.79;97350.53;5008949;28;20038;-55
2022/04/09 10:06:15;;;;;;;64.03;6.20;;;;;;;12.67;64.57;97348.28;5008647;28;20045;-56
2022/04/09 10:08:40;;;;;;;73.15;6.32;;;;;;;15.37;65.74;97350.03;5006430;28;20032;-57
2022/04/09 10:11:07;;;;;;;73.80;6.07;;;;;;;15.94;64.85;97345.97;5005660;28;21084;-58
2022/04/09 10:13:36;;;;;;;66.75;5.68;;;;;;;15.84;66.93;97344.94;5005988;28;20079;-56
2022/04/09 10:16:03;;;;;;;47.53;4.88;;;;;;;16.29;64.75;97342.53;5004248;28;20041;-57
2022/04/09 10:18:29;;;;;;;52.63;4.70;;;;;;;18.38;61.13;97346.34;5005898;28;20531;-58
2022/04/09 10:21:00;;;;;;;39.67;4.72;;;;;;;14.96;58.78;97356.38;5005170;28;20038;-56
2022/04/09 10:26:02;;;;;;;79.13;7.07;;;;;;;12.33;66.97;97360.72;5486550;23;20816;-57
2022/04/09 10:28:34;;;;;;;82.18;6.55;;;;;;;13.15;71.81;97363.72;4976188;28;20480;-56
2022/04/09 10:31:00;;;;;;;81.65;6.72;;;;;;;14.04;84.53;97363.34;4975195;28;20045;-58
2022/04/09 10:33:28;;;;;;;81.15;6.68;;;;;;;13.03;75.18;97363.56;4981280;28;20109;-55
2022/04/09 10:35:55;;;;;;;74.85;6.18;;;;;;;13.85;79.53;97363.72;4978093;28;20035;-55
2022/04/09 10:38:22;;;;;;;59.97;5.32;;;;;;;12.84;74.95;97361.19;4978890;28;20429;-53
2022/04/09 10:40:52;;;;;;;75.85;6.03;;;;;;;14.59;75.28;97366.75;4977550;28;20044;-56
2022/04/09 10:43:20;;;;;;;54.13;4.60;;;;;;;16.04;78.26;97375.06;4978655;28;20508;-55
2022/04/09 10:46:09;;;;;;;67.85;5.57;;;;;;;15.80;67.20;97354.84;4950944;28;20051;-56
2022/04/09 10:48:35;;;;;;;62.45;5.20;;;;;;;14.41;76.61;97367.03;4961638;28;20031;-56
2022/04/09 10:51:04;;;;;;;72.10;5.82;;;;;;;14.23;72.35;97371.69;4959696;28;20126;-53
2022/04/09 10:53:38;;;;;;;79.75;6.18;;;;;;;16.21;73.60;97361.50;4958708;28;20030;-55
2022/04/09 10:56:30;;;;;;;95.32;7.57;;;;;;;11.62;74.37;97363.88;4958528;28;20034;-56
2022/04/09 10:59:05;;;;;;;;;;;;;;;14.73;81.35;97366.66;4960525;28;20531;-54
2022/04/09 11:01:48;;;;;;;80.88;6.75;;;;;;;13.87;85.61;97361.81;4961252;28;19910;-54
2022/04/09 11:07:19;;;;;;;53.20;4.78;;;;;;;12.56;89.17;97371.63;4957765;28;20035;-54
2022/04/09 11:09:54;;;;;;;52.28;4.65;;;;;;;16.82;71.97;97371.00;4960833;28;20278;-55
2022/04/09 11:12:24;;;;;;;77.10;6.10;;;;;;;14.48;61.78;97367.44;4961578;28;20047;-54
2022/04/09 11:14:52;;;;;;;104.57;7.78;;;;;;;13.36;67.36;97372.06;4956453;28;20118;-55
2022/04/09 11:17:18;;;;;;;94.88;7.07;;;;;;;13.72;84.37;97362.81;4961671;28;20073;-57
2022/04/09 11:19:46;;;;;;;86.35;6.30;;;;;;;16.03;71.29;97368.09;4959380;28;20497;-55
2022/04/09 11:22:11;;;;;;;88.03;6.40;;;;;;;16.74;70.41;97369.81;4956678;28;20616;-56
2022/04/09 11:24:38;;;;;;;96.47;6.95;;;;;;;15.47;63.89;97360.72;4955650;28;20488;-55
2022/04/09 11:27:04;;;;;;;87.97;6.85;;;;;;;13.41;62.88;97364.75;4955227;28;20101;-56